createdAt,value
2024-04-18T00:01:19.367Z,89.78
2024-04-18T00:04:06.316Z,89.41
2024-04-18T00:06:38.077Z,89.72
2024-04-18T00:09:09.602Z,90.15
2024-04-18T00:11:42.431Z,90.15
2024-04-18T00:14:13.942Z,89.78
2024-04-18T00:16:45.218Z,89.81
2024-04-18T00:19:17.691Z,90.06
2024-04-18T00:21:49.293Z,89.97
2024-04-18T00:24:20.980Z,89.80
2024-04-18T00:26:52.467Z,89.77
2024-04-18T00:29:24.170Z,89.98
2024-04-18T00:31:55.381Z,89.86
2024-04-18T00:34:26.876Z,89.84
2024-04-18T00:36:58.279Z,90.33
2024-04-18T00:39:30.181Z,90.21
2024-04-18T00:42:01.732Z,89.99
2024-04-18T00:44:33.501Z,90.20
2024-04-18T00:47:05.075Z,90.29
2024-04-18T00:49:39.612Z,89.95
2024-04-18T00:52:12.201Z,90.00
2024-04-18T00:54:43.649Z,90.05
2024-04-18T00:57:15.548Z,90.18
2024-04-18T00:59:47.529Z,90.25
2024-04-18T01:02:18.947Z,90.18
2024-04-18T01:04:51.004Z,90.02
2024-04-18T01:07:22.440Z,90.28
2024-04-18T01:09:53.987Z,90.06
2024-04-18T01:12:25.726Z,90.07
2024-04-18T01:14:57.161Z,90.17
2024-04-18T01:17:28.527Z,90.42
2024-04-18T01:20:00.139Z,90.91
2024-04-18T01:22:31.672Z,90.88
2024-04-18T01:25:03.081Z,90.39
2024-04-18T01:27:34.378Z,90.35
2024-04-18T01:30:06.641Z,90.43
2024-04-18T01:32:38.527Z,90.44
2024-04-18T01:35:12.054Z,90.28
2024-04-18T01:37:43.554Z,90.69
2024-04-18T01:40:14.915Z,91.04
2024-04-18T01:42:46.430Z,90.98
2024-04-18T01:45:18.595Z,90.85
2024-04-18T01:47:49.934Z,90.86
2024-04-18T01:50:21.790Z,91.19
2024-04-18T01:52:53.196Z,91.22
2024-04-18T01:55:25.007Z,90.90
2024-04-18T01:57:56.492Z,90.61
2024-04-18T02:00:27.937Z,90.95
2024-04-18T02:02:59.230Z,91.05
2024-04-18T02:05:30.704Z,91.01
2024-04-18T02:08:01.971Z,91.09
2024-04-18T02:10:33.404Z,91.14
2024-04-18T02:13:04.672Z,91.30
2024-04-18T02:15:36.893Z,91.22
2024-04-18T02:18:08.388Z,91.02
2024-04-18T02:20:39.761Z,90.94
2024-04-18T02:23:10.946Z,90.80
2024-04-18T02:25:42.320Z,90.67
2024-04-18T02:28:14.009Z,90.56
2024-04-18T02:30:45.528Z,91.07
2024-04-18T02:33:18.144Z,90.81
2024-04-18T02:35:50.326Z,90.61
2024-04-18T02:38:21.515Z,90.51
2024-04-18T02:40:52.969Z,90.50
2024-04-18T02:43:24.342Z,90.69
2024-04-18T02:45:56.758Z,90.68
2024-04-18T02:48:28.353Z,90.54
2024-04-18T02:50:59.803Z,90.47
2024-04-18T02:53:31.284Z,90.55
2024-04-18T02:56:02.657Z,90.86
2024-04-18T02:58:33.943Z,90.92
2024-04-18T03:01:06.569Z,90.89
2024-04-18T03:03:38.005Z,90.62
2024-04-18T03:06:09.880Z,90.59
2024-04-18T03:08:41.055Z,90.64
2024-04-18T03:11:12.598Z,90.63
2024-04-18T03:13:44.254Z,90.44
2024-04-18T03:16:17.403Z,90.56
2024-04-18T03:18:48.728Z,90.37
2024-04-18T03:21:20.381Z,90.07
2024-04-18T03:23:52.179Z,90.18
2024-04-18T03:26:23.608Z,90.44
2024-04-18T03:29:00.322Z,90.64
2024-04-18T03:31:32.343Z,91.20
2024-04-18T03:34:03.550Z,91.48
2024-04-18T03:36:35.698Z,91.12
2024-04-18T03:39:06.983Z,91.26
2024-04-18T03:41:39.900Z,91.93
2024-04-18T03:44:11.552Z,91.57
2024-04-18T03:46:43.247Z,91.42
2024-04-18T03:49:14.558Z,91.73
2024-04-18T03:51:46.164Z,92.50
2024-04-18T03:54:17.493Z,92.27
2024-04-18T03:56:48.918Z,92.83
2024-04-18T03:59:20.223Z,92.36
2024-04-18T04:01:51.600Z,92.50
2024-04-18T04:04:23.063Z,92.42
2024-04-18T04:06:54.532Z,92.48
2024-04-18T04:09:25.937Z,93.10
2024-04-18T04:11:57.278Z,92.99
2024-04-18T04:14:28.514Z,92.94
2024-04-18T04:16:59.843Z,92.99
2024-04-18T04:19:31.208Z,93.20
2024-04-18T04:22:03.360Z,93.38
2024-04-18T04:24:34.734Z,93.36
2024-04-18T04:27:06.447Z,93.28
2024-04-18T04:29:38.192Z,93.00
2024-04-18T04:32:22.233Z,92.68
2024-04-18T04:34:53.917Z,92.74
2024-04-18T04:37:25.352Z,92.80
2024-04-18T04:39:57.473Z,92.44
2024-04-18T04:42:29.028Z,92.19
2024-04-18T04:45:00.359Z,92.11
2024-04-18T04:47:33.843Z,91.66
2024-04-18T04:50:06.863Z,91.38
2024-04-18T04:52:40.824Z,91.46
2024-04-18T04:55:12.109Z,91.31
2024-04-18T04:57:43.596Z,90.91
2024-04-18T05:00:17.442Z,90.68
2024-04-18T05:02:50.008Z,90.76
2024-04-18T05:05:21.527Z,90.84
2024-04-18T05:07:55.639Z,90.20
2024-04-18T05:10:27.126Z,89.60
2024-04-18T05:13:02.141Z,89.53
2024-04-18T05:15:33.514Z,89.68
2024-04-18T05:18:05.350Z,89.65
2024-04-18T05:20:37.600Z,89.76
2024-04-18T05:23:09.604Z,89.55
2024-04-18T05:25:41.119Z,89.62
2024-04-18T05:28:14.772Z,88.99
2024-04-18T05:31:06.193Z,89.13
2024-04-18T05:33:38.368Z,89.28
2024-04-18T05:36:10.838Z,89.16
2024-04-18T05:38:42.061Z,88.65
2024-04-18T05:41:13.311Z,88.45
2024-04-18T05:43:44.683Z,88.58
2024-04-18T05:46:16.292Z,88.63
2024-04-18T05:48:47.956Z,88.42
2024-04-18T05:51:19.333Z,87.90
2024-04-18T05:53:50.528Z,87.68
2024-04-18T05:56:22.020Z,87.93
2024-04-18T05:58:53.271Z,88.17
2024-04-18T06:01:24.962Z,87.60
2024-04-18T06:03:56.557Z,87.96
2024-04-18T06:06:28.457Z,88.03
2024-04-18T06:08:59.857Z,87.85
2024-04-18T06:11:36.763Z,86.79
2024-04-18T06:14:08.345Z,86.61
2024-04-18T06:16:39.880Z,86.55
2024-04-18T06:19:12.173Z,86.56
2024-04-18T06:21:43.427Z,86.44
2024-04-18T06:24:14.727Z,86.35
2024-04-18T06:26:45.928Z,85.93
2024-04-18T06:29:17.246Z,85.23
2024-04-18T06:31:48.562Z,85.27
2024-04-18T06:34:20.077Z,85.19
2024-04-18T06:36:51.423Z,85.13
2024-04-18T06:39:23.100Z,85.02
2024-04-18T06:41:54.723Z,85.40
2024-04-18T06:44:26.279Z,85.58
2024-04-18T06:47:02.123Z,85.54
2024-04-18T06:49:34.415Z,85.37
2024-04-18T06:52:06.188Z,85.07
2024-04-18T06:54:37.753Z,85.00
2024-04-18T06:57:09.320Z,85.23
2024-04-18T06:59:40.611Z,84.60
2024-04-18T07:02:12.060Z,83.97
2024-04-18T07:04:46.063Z,84.35
2024-04-18T07:07:17.840Z,84.20
2024-04-18T07:09:49.912Z,84.52
2024-04-18T07:12:21.448Z,84.29
2024-04-18T07:14:52.851Z,83.44
2024-04-18T07:17:24.272Z,83.88
2024-04-18T07:19:55.729Z,83.12
2024-04-18T07:22:27.886Z,82.57
2024-04-18T07:24:59.402Z,82.50
2024-04-18T07:27:30.699Z,82.41
2024-04-18T07:30:02.230Z,82.32
2024-04-18T07:32:33.849Z,82.01
2024-04-18T07:35:06.204Z,82.42
2024-04-18T07:37:38.060Z,82.38
2024-04-18T07:40:13.798Z,82.12
2024-04-18T07:42:46.561Z,82.38
2024-04-18T07:45:18.537Z,81.89
2024-04-18T07:47:50.056Z,81.20
2024-04-18T07:50:21.662Z,80.64
2024-04-18T07:53:00.616Z,80.57
2024-04-18T07:55:39.185Z,80.78
2024-04-18T07:58:11.591Z,81.03
2024-04-18T08:00:44.290Z,81.21
2024-04-18T08:03:18.402Z,79.49
2024-04-18T08:05:53.170Z,77.84
2024-04-18T08:08:28.963Z,75.84
2024-04-18T08:11:25.716Z,75.92
2024-04-18T08:13:57.433Z,76.85
2024-04-18T08:16:31.540Z,76.94
2024-04-18T08:19:02.943Z,75.88
2024-04-18T08:21:34.335Z,76.24
2024-04-18T08:24:06.237Z,76.06
2024-04-18T08:26:37.532Z,75.57
2024-04-18T08:29:08.827Z,74.89
2024-04-18T08:31:40.655Z,75.20
2024-04-18T08:34:17.952Z,76.16
2024-04-18T08:36:50.269Z,76.93
2024-04-18T08:39:22.019Z,77.52
2024-04-18T08:41:54.792Z,77.45
2024-04-18T08:44:26.142Z,76.82
2024-04-18T08:46:59.271Z,76.57
2024-04-18T08:49:31.244Z,77.16
2024-04-18T08:52:02.972Z,77.13
2024-04-18T08:54:34.786Z,76.00
2024-04-18T08:57:08.394Z,75.73
2024-04-18T08:59:39.921Z,75.86
2024-04-18T09:02:12.061Z,76.47
2024-04-18T09:04:43.752Z,76.31
2024-04-18T09:07:15.098Z,75.70
2024-04-18T09:09:48.099Z,75.00
2024-04-18T09:12:19.989Z,74.89
2024-04-18T09:14:51.292Z,74.80
2024-04-18T09:17:23.123Z,73.41
2024-04-18T09:19:54.441Z,72.20
2024-04-18T09:22:25.796Z,71.41
2024-04-18T09:24:57.128Z,71.24
2024-04-18T09:27:29.084Z,72.24
2024-04-18T09:30:00.670Z,72.58
2024-04-18T09:32:32.507Z,71.43
2024-04-18T09:35:04.754Z,71.59
2024-04-18T09:37:36.516Z,71.70
2024-04-18T09:40:12.309Z,71.22
2024-04-18T09:42:48.137Z,70.88
2024-04-18T09:45:22.240Z,71.70
2024-04-18T09:47:54.478Z,69.70
2024-04-18T09:50:26.070Z,67.59
2024-04-18T09:52:57.839Z,68.68
2024-04-18T09:55:30.695Z,68.60
2024-04-18T09:58:02.910Z,66.18
2024-04-18T10:00:34.591Z,67.05
2024-04-18T10:03:07.503Z,66.67
2024-04-18T10:05:40.811Z,65.54
2024-04-18T10:08:12.376Z,65.60
2024-04-18T10:10:45.700Z,65.06
2024-04-18T10:13:18.022Z,65.65
2024-04-18T10:15:50.071Z,65.89
2024-04-18T10:18:21.800Z,66.43
2024-04-18T10:20:56.582Z,66.24
2024-04-18T10:23:30.224Z,66.18
2024-04-18T10:26:01.794Z,65.66
2024-04-18T10:28:36.319Z,66.86
2024-04-18T10:31:09.468Z,67.92
2024-04-18T10:33:41.898Z,69.26
2024-04-18T10:36:16.091Z,70.52
2024-04-18T10:38:48.651Z,71.78
2024-04-18T10:41:23.558Z,72.57
2024-04-18T10:43:56.049Z,73.35
2024-04-18T10:46:27.597Z,73.98
2024-04-18T10:48:59.209Z,74.48
2024-04-18T10:51:30.804Z,74.89
2024-04-18T10:54:02.369Z,74.94
2024-04-18T10:56:34.115Z,74.41
2024-04-18T10:59:05.624Z,74.38
2024-04-18T11:01:40.454Z,73.69
2024-04-18T11:04:12.660Z,74.82
2024-04-18T11:06:45.238Z,74.13
2024-04-18T11:09:17.561Z,71.48
2024-04-18T11:11:48.955Z,69.65
2024-04-18T11:14:22.635Z,68.20
2024-04-18T11:17:01.587Z,69.40
2024-04-18T11:19:33.904Z,68.35
2024-04-18T11:22:05.302Z,68.27
2024-04-18T11:24:37.212Z,67.69
2024-04-18T11:27:09.101Z,66.90
2024-04-18T11:29:42.125Z,66.61
2024-04-18T11:32:14.289Z,66.75
2024-04-18T11:34:50.201Z,66.61
2024-04-18T11:37:23.629Z,67.08
2024-04-18T11:39:57.948Z,63.27
2024-04-18T11:42:27.850Z,63.91
2024-04-18T11:44:59.120Z,64.56
2024-04-18T11:47:30.547Z,64.58
2024-04-18T11:50:01.862Z,63.68
2024-04-18T11:52:33.144Z,60.70
2024-04-18T11:55:04.570Z,58.75
2024-04-18T11:57:36.217Z,58.61
2024-04-18T12:00:09.419Z,60.03
2024-04-18T12:02:40.692Z,61.39
2024-04-18T12:05:11.900Z,62.58
2024-04-18T12:07:43.243Z,64.12
2024-04-18T12:10:14.610Z,65.60
2024-04-18T12:12:46.058Z,66.59
2024-04-18T12:15:20.178Z,66.90
2024-04-18T12:17:51.538Z,68.28
2024-04-18T12:20:23.746Z,67.16
2024-04-18T12:22:55.100Z,66.86
2024-04-18T12:25:26.452Z,64.32
2024-04-18T12:27:57.634Z,63.35
2024-04-18T12:30:30.537Z,60.31
2024-04-18T12:33:02.293Z,60.50
2024-04-18T12:35:33.928Z,58.97
2024-04-18T12:38:05.351Z,58.77
2024-04-18T12:40:36.748Z,59.66
2024-04-18T12:43:08.200Z,60.28
2024-04-18T12:45:39.901Z,62.09
2024-04-18T12:48:11.786Z,62.62
2024-04-18T12:50:43.557Z,64.02
2024-04-18T12:53:14.905Z,66.24
2024-04-18T12:55:46.507Z,66.88
2024-04-18T12:58:17.814Z,67.08
2024-04-18T13:00:49.221Z,68.15
2024-04-18T13:03:20.642Z,69.26
2024-04-18T13:05:52.469Z,69.47
2024-04-18T13:08:23.770Z,69.86
2024-04-18T13:10:55.838Z,70.43
2024-04-18T13:13:27.101Z,70.49
2024-04-18T13:16:02.723Z,70.37
2024-04-18T13:18:34.682Z,69.37
2024-04-18T13:21:06.677Z,68.52
2024-04-18T13:23:37.881Z,67.22
2024-04-18T13:26:09.249Z,64.77
2024-04-18T13:28:40.867Z,62.56
2024-04-18T13:31:14.148Z,61.45
2024-04-18T13:33:52.035Z,60.66
2024-04-18T13:36:24.048Z,60.31
2024-04-18T13:38:55.637Z,61.08
2024-04-18T13:41:29.060Z,60.23
2024-04-18T13:44:00.300Z,59.62
2024-04-18T13:46:31.822Z,58.12
2024-04-18T13:49:03.211Z,58.80
2024-04-18T13:51:34.626Z,60.03
2024-04-18T13:54:06.572Z,60.32
2024-04-18T13:56:38.062Z,61.14
2024-04-18T13:59:10.405Z,59.51
2024-04-18T14:01:41.860Z,60.53
2024-04-18T14:04:13.258Z,60.28
2024-04-18T14:06:44.861Z,60.33
2024-04-18T14:09:16.544Z,59.67
2024-04-18T14:11:47.874Z,59.85
2024-04-18T14:14:21.587Z,59.83
2024-04-18T14:17:10.540Z,59.00
2024-04-18T14:19:41.790Z,58.78
2024-04-18T14:22:13.166Z,59.86
2024-04-18T14:24:44.753Z,59.88
2024-04-18T14:27:16.402Z,59.18
2024-04-18T14:29:47.723Z,57.88
2024-04-18T14:32:19.116Z,56.81
2024-04-18T14:34:50.476Z,56.67
2024-04-18T14:37:21.903Z,56.38
2024-04-18T14:39:53.196Z,55.86
2024-04-18T14:42:24.509Z,55.55
2024-04-18T14:44:55.786Z,55.14
2024-04-18T14:47:29.632Z,55.27
2024-04-18T14:50:03.599Z,53.13
2024-04-18T14:52:36.441Z,52.64
2024-04-18T14:55:08.272Z,51.49
2024-04-18T14:57:39.630Z,52.91
2024-04-18T15:00:13.513Z,53.27
2024-04-18T15:02:45.029Z,53.18
2024-04-18T15:05:16.979Z,53.87
2024-04-18T15:07:50.579Z,54.71
2024-04-18T15:10:23.285Z,55.56
2024-04-18T15:12:54.649Z,57.13
2024-04-18T15:15:25.945Z,58.42
2024-04-18T15:17:58.372Z,59.77
2024-04-18T15:20:29.647Z,59.97
2024-04-18T15:23:01.085Z,60.02
2024-04-18T15:25:33.086Z,60.94
2024-04-18T15:28:04.826Z,61.19
2024-04-18T15:30:36.059Z,62.10
2024-04-18T15:33:08.240Z,62.75
2024-04-18T15:35:40.044Z,63.76
2024-04-18T15:38:11.747Z,64.22
2024-04-18T15:40:43.351Z,64.76
2024-04-18T15:43:14.616Z,65.33
2024-04-18T15:45:45.925Z,65.69
2024-04-18T15:48:17.800Z,66.21
2024-04-18T15:50:49.228Z,66.49
2024-04-18T15:53:20.628Z,66.28
2024-04-18T15:55:52.250Z,67.05
2024-04-18T15:58:23.900Z,66.89
2024-04-18T16:00:55.236Z,66.95
2024-04-18T16:03:26.995Z,67.14
2024-04-18T16:05:59.148Z,67.50
2024-04-18T16:08:30.449Z,67.22
2024-04-18T16:11:01.941Z,67.19
2024-04-18T16:13:33.369Z,67.07
2024-04-18T16:16:05.508Z,67.68
2024-04-18T16:18:38.782Z,67.89
2024-04-18T16:21:10.291Z,68.27
2024-04-18T16:23:41.683Z,68.25
2024-04-18T16:26:12.943Z,68.32
2024-04-18T16:28:46.138Z,68.07
2024-04-18T16:31:17.429Z,67.97
2024-04-18T16:33:48.678Z,68.41
2024-04-18T16:36:31.535Z,68.28
2024-04-18T16:39:10.837Z,68.22
2024-04-18T16:41:43.791Z,68.78
2024-04-18T16:44:15.082Z,68.81
2024-04-18T16:46:46.306Z,68.72
2024-04-18T16:49:17.640Z,68.50
2024-04-18T16:51:49.570Z,68.65
2024-04-18T16:54:20.915Z,68.40
2024-04-18T16:56:52.175Z,68.63
2024-04-18T16:59:23.924Z,68.73
2024-04-18T17:01:55.159Z,68.97
2024-04-18T17:04:27.031Z,69.16
2024-04-18T17:06:58.486Z,69.43
2024-04-18T17:09:30.465Z,69.79
2024-04-18T17:12:02.231Z,70.67
2024-04-18T17:14:33.712Z,70.81
2024-04-18T17:17:05.149Z,70.55
2024-04-18T17:19:36.980Z,71.21
2024-04-18T17:22:08.559Z,71.09
2024-04-18T17:24:40.083Z,71.34
2024-04-18T17:27:11.427Z,71.43
2024-04-18T17:29:42.838Z,71.47
2024-04-18T17:32:14.083Z,71.77
2024-04-18T17:34:45.579Z,71.41
2024-04-18T17:37:16.864Z,71.45
2024-04-18T17:39:51.806Z,71.38
2024-04-18T17:42:23.998Z,71.48
2024-04-18T17:44:55.565Z,71.39
2024-04-18T17:47:27.073Z,71.33
2024-04-18T17:49:58.653Z,71.32
2024-04-18T17:52:29.930Z,71.34
2024-04-18T17:55:01.635Z,71.64
2024-04-18T17:57:33.128Z,71.74
2024-04-18T18:00:04.648Z,71.56
2024-04-18T18:02:35.989Z,71.23
2024-04-18T18:05:08.126Z,71.47
2024-04-18T18:07:39.798Z,71.91
2024-04-18T18:10:11.323Z,71.81
2024-04-18T18:12:42.583Z,71.80
2024-04-18T18:15:15.894Z,71.92
2024-04-18T18:17:47.351Z,71.66
2024-04-18T18:20:19.030Z,71.77
2024-04-18T18:22:50.343Z,71.61
2024-04-18T18:25:21.615Z,71.56
2024-04-18T18:27:52.833Z,71.71
2024-04-18T18:30:25.970Z,71.83
2024-04-18T18:32:57.440Z,71.93
2024-04-18T18:35:30.835Z,72.24
2024-04-18T18:38:02.214Z,71.61
2024-04-18T18:40:35.940Z,71.78
2024-04-18T18:43:06.348Z,71.68
2024-04-18T18:45:37.787Z,72.07
2024-04-18T18:48:10.415Z,71.96
2024-04-18T18:50:45.365Z,71.97
2024-04-18T18:53:16.678Z,72.09
2024-04-18T18:55:48.253Z,71.93
2024-04-18T18:58:19.971Z,72.06
2024-04-18T19:00:51.340Z,71.81
2024-04-18T19:03:22.636Z,72.01
2024-04-18T19:05:54.015Z,71.92
2024-04-18T19:08:25.389Z,71.94
2024-04-18T19:10:56.803Z,72.22
2024-04-18T19:13:28.116Z,72.49
2024-04-18T19:16:00.090Z,72.65
2024-04-18T19:18:31.521Z,72.76
2024-04-18T19:21:03.219Z,72.83
2024-04-18T19:23:41.196Z,72.90
2024-04-18T19:26:12.721Z,72.60
2024-04-18T19:28:44.538Z,72.72
2024-04-18T19:31:15.921Z,72.32
2024-04-18T19:33:47.392Z,72.74
2024-04-18T19:36:20.435Z,72.61
2024-04-18T19:38:52.862Z,72.49
2024-04-18T19:41:24.391Z,72.77
2024-04-18T19:43:56.851Z,72.93
2024-04-18T19:46:28.228Z,72.92
2024-04-18T19:49:00.803Z,73.24
2024-04-18T19:51:33.420Z,73.05
2024-04-18T19:54:04.811Z,73.10
2024-04-18T19:56:36.291Z,73.17
2024-04-18T19:59:07.613Z,73.14
2024-04-18T20:01:41.490Z,72.96
2024-04-18T20:04:12.764Z,72.96
2024-04-18T20:06:44.171Z,72.67
2024-04-18T20:09:15.550Z,72.32
2024-04-18T20:11:47.152Z,71.81
2024-04-18T20:14:18.556Z,71.83
2024-04-18T20:16:52.994Z,71.49
2024-04-18T20:19:27.103Z,71.24
2024-04-18T20:21:58.646Z,71.03
2024-04-18T20:24:30.026Z,70.79
2024-04-18T20:27:01.485Z,70.93
2024-04-18T20:29:33.719Z,70.58
2024-04-18T20:32:05.627Z,70.63
2024-04-18T20:34:36.829Z,70.65
2024-04-18T20:37:08.250Z,70.67
2024-04-18T20:39:40.105Z,71.07
2024-04-18T20:42:12.142Z,70.82
2024-04-18T20:44:43.452Z,71.40
2024-04-18T20:47:14.646Z,71.41
2024-04-18T20:49:46.218Z,71.58
2024-04-18T20:52:17.467Z,72.22
2024-04-18T20:54:48.828Z,72.49
2024-04-18T20:57:24.291Z,72.33
2024-04-18T20:59:57.353Z,72.62
2024-04-18T21:02:28.762Z,72.65
2024-04-18T21:05:00.184Z,72.88
2024-04-18T21:07:32.020Z,73.06
2024-04-18T21:10:03.377Z,72.97
2024-04-18T21:12:34.733Z,73.46
2024-04-18T21:15:06.960Z,73.47
2024-04-18T21:17:38.496Z,73.85
2024-04-18T21:20:10.844Z,73.80
2024-04-18T21:22:42.159Z,73.96
2024-04-18T21:25:13.428Z,74.49
2024-04-18T21:27:44.842Z,74.60
2024-04-18T21:30:16.397Z,75.43
2024-04-18T21:32:48.157Z,74.86
2024-04-18T21:35:20.113Z,75.20
2024-04-18T21:37:51.538Z,75.93
2024-04-18T21:40:22.763Z,76.40
2024-04-18T21:42:56.078Z,76.60
2024-04-18T21:45:27.415Z,77.09
2024-04-18T21:47:58.985Z,77.12
2024-04-18T21:50:30.950Z,76.80
2024-04-18T21:53:03.132Z,77.37
2024-04-18T21:55:34.463Z,77.84
2024-04-18T21:58:06.055Z,77.41
2024-04-18T22:00:38.112Z,77.42
2024-04-18T22:03:09.725Z,77.39
2024-04-18T22:05:41.078Z,77.85
2024-04-18T22:08:12.856Z,77.66
2024-04-18T22:10:44.143Z,77.63
2024-04-18T22:13:15.673Z,77.72
2024-04-18T22:15:47.024Z,78.18
2024-04-18T22:18:18.577Z,78.59
2024-04-18T22:20:50.345Z,78.67
2024-04-18T22:23:21.746Z,78.81
2024-04-18T22:25:52.984Z,78.75
2024-04-18T22:28:24.683Z,78.90
2024-04-18T22:31:00.225Z,78.76
2024-04-18T22:33:32.309Z,78.87
2024-04-18T22:36:03.826Z,78.81
2024-04-18T22:38:35.649Z,78.67
2024-04-18T22:41:08.782Z,79.33
2024-04-18T22:43:40.362Z,79.38
2024-04-18T22:46:11.581Z,79.66
2024-04-18T22:48:43.776Z,79.94
2024-04-18T22:51:15.323Z,79.89
2024-04-18T22:53:46.904Z,80.11
2024-04-18T22:56:20.465Z,80.18
2024-04-18T22:58:51.728Z,80.10
2024-04-18T23:01:23.197Z,79.86
2024-04-18T23:03:54.895Z,79.98
2024-04-18T23:06:26.649Z,81.05
2024-04-18T23:08:58.115Z,81.29
2024-04-18T23:11:29.785Z,81.45
2024-04-18T23:14:01.456Z,80.96
2024-04-18T23:16:32.735Z,81.07
2024-04-18T23:19:04.167Z,81.47
2024-04-18T23:21:35.532Z,81.32
2024-04-18T23:24:07.618Z,81.57
2024-04-18T23:26:40.657Z,82.23
2024-04-18T23:29:11.936Z,82.00
2024-04-18T23:31:43.475Z,81.60
2024-04-18T23:34:14.797Z,82.35
2024-04-18T23:36:46.111Z,81.93
2024-04-18T23:39:17.783Z,82.26
2024-04-18T23:41:49.204Z,82.56
2024-04-18T23:44:20.732Z,82.54
2024-04-18T23:46:52.021Z,82.46
2024-04-18T23:49:23.479Z,82.81
2024-04-18T23:51:54.748Z,82.44
2024-04-18T23:54:26.279Z,82.13
2024-04-18T23:56:58.010Z,82.03
2024-04-18T23:59:30.556Z,82.22
